X  CloseMetar Aviation Weather Data     KMSL Northwest Alabama Regional

Temperature

54°F Temperature

43°F Dewpoint

67% Humidity



Wind

 7 MPH

11 KM/H

 3 M/S

 6 KTS



210°
South South
West
Current Conditions

Clear Clear
Pressure 1011.52 (hPa) - 29.87 (in)
Visibility 10 (mi) - 16.1 (km)
Airport
Airport-code KMSL

Location Northwest Alabama Regional 5 (mi)

Metar:
KMSL 191453Z AUTO 21006KT 10SM CLR 12/06 A2987 RMK AO2 SLP114 60000 T01170056 53010 $

Time: 11-19-2019 8:53